createdAt,value
2019-05-07T00:01:55.157Z,81.33
2019-05-07T00:04:26.206Z,81.21
2019-05-07T00:06:57.751Z,81.53
2019-05-07T00:09:29.306Z,81.67
2019-05-07T00:12:04.703Z,81.64
2019-05-07T00:14:34.576Z,81.01
2019-05-07T00:17:07.187Z,81.17
2019-05-07T00:19:38.924Z,80.73
2019-05-07T00:22:12.396Z,80.80
2019-05-07T00:24:43.188Z,80.27
2019-05-07T00:27:14.456Z,80.01
2019-05-07T00:29:45.765Z,80.12
2019-05-07T00:32:17.428Z,80.00
2019-05-07T00:34:54.257Z,81.16
2019-05-07T00:37:35.425Z,79.91
2019-05-07T00:40:28.943Z,79.39
2019-05-07T00:43:13.398Z,80.25
2019-05-07T00:45:52.922Z,80.66
2019-05-07T00:48:24.471Z,80.68
2019-05-07T00:51:14.923Z,80.99
2019-05-07T00:53:46.580Z,80.77
2019-05-07T00:56:18.257Z,80.78
2019-05-07T00:58:49.874Z,80.86
2019-05-07T01:01:22.681Z,80.78
2019-05-07T01:03:54.558Z,80.27
2019-05-07T01:06:26.632Z,80.69
2019-05-07T01:08:59.139Z,80.61
2019-05-07T01:11:30.773Z,79.68
2019-05-07T01:14:02.828Z,79.18
2019-05-07T01:16:34.669Z,79.30
2019-05-07T01:19:06.483Z,79.29
2019-05-07T01:21:37.983Z,79.14
2019-05-07T01:24:09.531Z,79.24
2019-05-07T01:26:42.568Z,79.52
2019-05-07T01:29:14.373Z,79.48
2019-05-07T01:31:54.763Z,78.97
2019-05-07T01:34:44.924Z,78.86
2019-05-07T01:37:16.586Z,78.18
2019-05-07T01:39:47.941Z,78.71
2019-05-07T01:42:19.372Z,77.93
2019-05-07T01:44:52.843Z,77.37
2019-05-07T01:47:24.258Z,77.70
2019-05-07T01:49:55.925Z,77.18
2019-05-07T01:52:27.548Z,77.65
2019-05-07T01:54:59.257Z,77.75
2019-05-07T01:57:32.587Z,77.34
2019-05-07T02:00:05.297Z,77.62
2019-05-07T02:02:58.699Z,78.05
2019-05-07T02:05:39.190Z,78.30
2019-05-07T02:08:14.189Z,78.05
2019-05-07T02:11:04.667Z,78.13
2019-05-07T02:13:36.272Z,78.26
2019-05-07T02:16:07.745Z,78.17
2019-05-07T02:18:39.011Z,78.03
2019-05-07T02:21:12.730Z,77.48
2019-05-07T02:23:43.481Z,77.56
2019-05-07T02:26:14.684Z,78.00
2019-05-07T02:28:45.966Z,78.56
2019-05-07T02:31:17.238Z,78.79
2019-05-07T02:33:49.027Z,78.90
2019-05-07T02:36:23.581Z,79.45
2019-05-07T02:39:03.957Z,79.36
2019-05-07T02:41:37.225Z,79.31
2019-05-07T02:44:08.595Z,79.28
2019-05-07T02:47:03.739Z,79.64
2019-05-07T02:49:56.355Z,79.84
2019-05-07T02:52:49.448Z,78.72
2019-05-07T02:55:37.360Z,78.73
2019-05-07T02:58:08.945Z,79.55
2019-05-07T03:00:43.091Z,79.77
2019-05-07T03:03:13.977Z,80.32
2019-05-07T03:05:46.607Z,80.47
2019-05-07T03:08:18.003Z,80.66
2019-05-07T03:10:52.496Z,79.96
2019-05-07T03:13:23.933Z,80.31
2019-05-07T03:15:55.582Z,80.42
2019-05-07T03:18:27.135Z,80.08
2019-05-07T03:21:18.307Z,79.97
2019-05-07T03:24:14.026Z,79.56
2019-05-07T03:26:46.109Z,79.54
2019-05-07T03:29:23.644Z,78.66
2019-05-07T03:32:15.785Z,79.05
2019-05-07T03:34:58.202Z,78.50
2019-05-07T03:37:35.757Z,78.51
2019-05-07T03:40:04.219Z,78.66
2019-05-07T03:42:36.223Z,78.95
2019-05-07T03:45:17.587Z,78.68
2019-05-07T03:47:54.312Z,78.44
2019-05-07T03:50:25.763Z,78.33
2019-05-07T03:52:57.172Z,78.70
2019-05-07T03:55:28.942Z,78.08
2019-05-07T03:58:02.911Z,78.31
2019-05-07T04:00:33.580Z,77.92
2019-05-07T04:03:05.201Z,78.87
2019-05-07T04:05:36.871Z,77.84
2019-05-07T04:08:08.577Z,77.21
2019-05-07T04:10:39.780Z,75.98
2019-05-07T04:13:13.584Z,75.86
2019-05-07T04:15:45.419Z,75.87
2019-05-07T04:18:17.422Z,75.69
2019-05-07T04:20:49.155Z,74.80
2019-05-07T04:23:23.300Z,74.74
2019-05-07T04:26:19.058Z,74.37
2019-05-07T04:29:04.751Z,74.04
2019-05-07T04:31:38.460Z,74.29
2019-05-07T04:34:15.658Z,75.18
2019-05-07T04:36:49.018Z,75.19
2019-05-07T04:39:23.193Z,75.25
2019-05-07T04:41:53.784Z,75.06
2019-05-07T04:44:25.399Z,75.74
2019-05-07T04:46:57.018Z,75.30
2019-05-07T04:49:28.472Z,74.48
2019-05-07T04:52:11.338Z,74.40
2019-05-07T04:54:43.687Z,75.10
2019-05-07T04:57:26.875Z,75.24
2019-05-07T04:59:58.950Z,75.18
2019-05-07T05:02:46.983Z,75.01
2019-05-07T05:05:19.707Z,74.27
2019-05-07T05:07:53.359Z,74.46
2019-05-07T05:10:24.406Z,74.23
2019-05-07T05:12:56.032Z,73.55
2019-05-07T05:15:27.380Z,73.66
2019-05-07T05:17:58.954Z,72.04
2019-05-07T05:20:45.454Z,73.20
2019-05-07T05:23:34.497Z,73.52
2019-05-07T05:26:06.345Z,73.08
2019-05-07T05:28:37.581Z,72.55
2019-05-07T05:31:08.784Z,73.79
2019-05-07T05:33:41.924Z,73.99
2019-05-07T05:36:13.775Z,73.33
2019-05-07T05:38:45.464Z,72.33
2019-05-07T05:41:17.087Z,73.51
2019-05-07T05:44:11.877Z,72.47
2019-05-07T05:46:43.453Z,72.46
2019-05-07T05:49:14.721Z,72.40
2019-05-07T05:52:04.850Z,73.34
2019-05-07T05:54:39.943Z,72.77
2019-05-07T05:57:32.693Z,72.67
2019-05-07T06:00:25.940Z,73.16
2019-05-07T06:03:28.312Z,72.57
2019-05-07T06:06:16.457Z,71.32
2019-05-07T06:09:01.792Z,71.10
2019-05-07T06:11:53.457Z,71.51
2019-05-07T06:14:46.838Z,70.93
2019-05-07T06:17:52.637Z,71.07
2019-05-07T06:20:42.861Z,70.06
2019-05-07T06:23:35.357Z,69.66
2019-05-07T06:26:06.967Z,71.41
2019-05-07T06:28:38.229Z,70.31
2019-05-07T06:31:09.796Z,70.01
2019-05-07T06:33:42.952Z,71.77
2019-05-07T06:36:14.867Z,70.69
2019-05-07T06:38:55.143Z,70.49
2019-05-07T06:41:43.842Z,71.50
2019-05-07T06:44:19.505Z,70.22
2019-05-07T06:46:52.608Z,70.08
2019-05-07T06:49:24.036Z,71.22
2019-05-07T06:51:55.216Z,69.77
2019-05-07T06:54:26.500Z,70.54
2019-05-07T06:56:57.716Z,69.88
2019-05-07T06:59:37.548Z,68.66
2019-05-07T07:02:36.936Z,68.90
2019-05-07T07:05:17.373Z,68.85
2019-05-07T07:07:53.557Z,69.54
2019-05-07T07:10:51.951Z,69.58
2019-05-07T07:13:23.978Z,68.47
2019-05-07T07:15:55.561Z,69.64
2019-05-07T07:18:27.005Z,70.51
2019-05-07T07:20:58.353Z,70.25
2019-05-07T07:23:32.158Z,71.09
2019-05-07T07:26:03.405Z,70.51
2019-05-07T07:28:34.915Z,71.17
2019-05-07T07:31:31.856Z,71.36
2019-05-07T07:34:05.485Z,71.15
2019-05-07T07:36:43.160Z,72.46
2019-05-07T07:39:14.372Z,72.02
2019-05-07T07:41:52.189Z,72.77
2019-05-07T07:44:23.393Z,72.75
2019-05-07T07:46:54.716Z,73.13
2019-05-07T07:49:26.223Z,72.40
2019-05-07T07:51:57.989Z,71.86
2019-05-07T07:54:29.227Z,71.92
2019-05-07T07:57:18.245Z,71.27
2019-05-07T07:59:58.255Z,70.99
2019-05-07T08:02:52.916Z,71.23
2019-05-07T08:05:24.374Z,71.53
2019-05-07T08:07:55.772Z,71.71
2019-05-07T08:10:27.170Z,71.65
2019-05-07T08:12:58.366Z,72.12
2019-05-07T08:15:29.934Z,71.85
2019-05-07T08:18:02.887Z,71.20
2019-05-07T08:20:34.685Z,70.49
2019-05-07T08:23:06.556Z,70.63
2019-05-07T08:25:52.489Z,70.03
2019-05-07T08:28:23.537Z,68.91
2019-05-07T08:31:02.992Z,70.19
2019-05-07T08:33:38.796Z,70.28
2019-05-07T08:36:14.678Z,68.02
2019-05-07T08:38:53.038Z,69.20
2019-05-07T08:41:26.411Z,68.56
2019-05-07T08:44:11.754Z,69.76
2019-05-07T08:46:53.739Z,69.35
2019-05-07T08:49:36.197Z,69.02
2019-05-07T08:52:03.440Z,70.30
2019-05-07T08:54:35.468Z,69.23
2019-05-07T08:57:07.089Z,69.38
2019-05-07T08:59:42.454Z,68.24
2019-05-07T09:02:14.752Z,68.57
2019-05-07T09:04:46.241Z,68.47
2019-05-07T09:07:17.722Z,67.66
2019-05-07T09:09:49.163Z,67.86
2019-05-07T09:12:22.740Z,68.14
2019-05-07T09:14:53.794Z,68.19
2019-05-07T09:17:25.098Z,67.33
2019-05-07T09:19:56.561Z,68.48
2019-05-07T09:22:27.992Z,68.34
2019-05-07T09:24:59.425Z,68.34
2019-05-07T09:27:49.486Z,69.50
2019-05-07T09:30:38.704Z,69.69
2019-05-07T09:33:28.843Z,69.39
2019-05-07T09:36:02.159Z,70.15
2019-05-07T09:38:33.214Z,68.34
2019-05-07T09:41:04.630Z,68.16
2019-05-07T09:43:36.316Z,68.47
2019-05-07T09:46:08.024Z,69.00
2019-05-07T09:48:39.364Z,69.74
2019-05-07T09:51:12.270Z,69.37
2019-05-07T09:53:43.788Z,68.50
2019-05-07T09:56:15.349Z,68.70
2019-05-07T09:58:46.981Z,68.45
2019-05-07T10:01:18.680Z,67.56
2019-05-07T10:03:51.857Z,67.75
2019-05-07T10:06:23.430Z,68.24
2019-05-07T10:08:55.079Z,68.00
2019-05-07T10:11:37.535Z,69.04
2019-05-07T10:14:12.436Z,69.49
2019-05-07T10:16:52.313Z,70.13
2019-05-07T10:19:23.692Z,69.71
2019-05-07T10:24:41.883Z,69.33
2019-05-07T10:27:13.737Z,68.95
2019-05-07T10:29:52.989Z,68.47
2019-05-07T10:32:24.637Z,68.26
2019-05-07T10:34:56.498Z,69.11
2019-05-07T10:37:28.080Z,69.47
2019-05-07T10:40:05.014Z,68.37
2019-05-07T10:42:36.752Z,69.17
2019-05-07T10:45:45.218Z,68.76
2019-05-07T10:48:26.025Z,69.05
2019-05-07T10:50:58.330Z,69.09
2019-05-07T10:53:31.884Z,69.99
2019-05-07T10:56:02.931Z,70.71
2019-05-07T10:58:34.344Z,70.87
2019-05-07T11:01:07.501Z,71.01
2019-05-07T11:03:39.409Z,72.08
2019-05-07T11:06:11.961Z,71.38
2019-05-07T11:08:43.579Z,70.70
2019-05-07T11:11:15.097Z,70.76
2019-05-07T11:13:46.347Z,70.04
2019-05-07T11:16:22.119Z,70.85
2019-05-07T11:18:53.720Z,70.92
2019-05-07T11:21:33.266Z,70.17
2019-05-07T11:24:04.740Z,70.00
2019-05-07T11:26:36.095Z,71.35
2019-05-07T11:29:07.653Z,70.97
2019-05-07T11:31:39.259Z,71.30
2019-05-07T11:34:11.966Z,70.92
2019-05-07T11:36:44.252Z,71.47
2019-05-07T11:39:15.722Z,72.28
2019-05-07T11:42:09.008Z,72.34
2019-05-07T11:44:42.319Z,72.48
2019-05-07T11:47:25.790Z,72.64
2019-05-07T11:50:14.907Z,72.78
2019-05-07T11:52:53.100Z,73.28
2019-05-07T11:55:24.926Z,72.88
2019-05-07T11:57:56.679Z,72.73
2019-05-07T12:00:39.675Z,72.86
2019-05-07T12:03:11.053Z,73.32
2019-05-07T12:05:42.537Z,73.18
2019-05-07T12:08:14.086Z,73.76
2019-05-07T12:10:45.728Z,74.00
2019-05-07T12:13:17.165Z,74.09
2019-05-07T12:15:48.691Z,72.91
2019-05-07T12:18:22.497Z,73.75
2019-05-07T12:20:54.158Z,72.88
2019-05-07T12:23:25.751Z,73.24
2019-05-07T12:25:57.347Z,74.57
2019-05-07T12:28:28.995Z,75.31
2019-05-07T12:31:20.011Z,75.27
2019-05-07T12:34:02.544Z,74.88
2019-05-07T12:36:33.994Z,74.82
2019-05-07T12:39:07.967Z,75.21
2019-05-07T12:41:41.858Z,75.80
2019-05-07T12:44:13.952Z,75.31
2019-05-07T12:46:45.512Z,75.06
2019-05-07T12:49:17.213Z,75.78
2019-05-07T12:52:07.643Z,75.91
2019-05-07T12:54:56.700Z,75.23
2019-05-07T12:57:28.079Z,75.84
2019-05-07T13:00:18.555Z,75.41
2019-05-07T13:03:08.943Z,75.69
2019-05-07T13:05:41.761Z,76.12
2019-05-07T13:08:13.607Z,76.11
2019-05-07T13:10:45.272Z,76.34
2019-05-07T13:13:17.161Z,75.80
2019-05-07T13:15:48.557Z,76.79
2019-05-07T13:18:22.504Z,76.06
2019-05-07T13:20:53.616Z,76.78
2019-05-07T13:23:25.332Z,77.23
2019-05-07T13:25:57.267Z,77.61
2019-05-07T13:28:28.722Z,77.22
2019-05-07T13:31:02.329Z,77.46
2019-05-07T13:33:36.182Z,77.58
2019-05-07T13:36:07.991Z,77.09
2019-05-07T13:39:04.817Z,77.22
2019-05-07T13:41:56.766Z,77.63
2019-05-07T13:44:53.344Z,77.81
2019-05-07T13:47:27.006Z,78.49
2019-05-07T13:49:59.040Z,78.44
2019-05-07T13:52:32.748Z,79.12
2019-05-07T13:55:03.695Z,78.91
2019-05-07T13:57:35.719Z,79.37
2019-05-07T14:00:12.811Z,79.35
2019-05-07T14:02:44.435Z,79.57
2019-05-07T14:05:17.092Z,79.24
2019-05-07T14:07:48.871Z,79.19
2019-05-07T14:10:20.460Z,79.60
2019-05-07T14:12:52.454Z,79.74
2019-05-07T14:15:24.384Z,79.80
2019-05-07T14:17:55.780Z,80.19
2019-05-07T14:20:27.504Z,80.61
2019-05-07T14:22:59.139Z,80.16
2019-05-07T14:25:32.440Z,80.26
2019-05-07T14:28:04.272Z,79.77
2019-05-07T14:30:35.794Z,79.77
2019-05-07T14:33:14.306Z,79.34
2019-05-07T14:35:58.345Z,79.04
2019-05-07T14:38:42.693Z,78.77
2019-05-07T14:41:14.603Z,79.38
2019-05-07T14:44:07.857Z,79.56
2019-05-07T14:46:45.590Z,79.78
2019-05-07T14:49:13.047Z,80.24
2019-05-07T14:51:44.866Z,79.94
2019-05-07T14:54:18.275Z,80.02
2019-05-07T14:56:51.686Z,80.38
2019-05-07T14:59:22.567Z,80.46
2019-05-07T15:01:54.254Z,80.68
2019-05-07T15:04:25.927Z,81.02
2019-05-07T15:06:57.515Z,81.29
2019-05-07T15:09:29.433Z,81.52
2019-05-07T15:12:02.197Z,82.11
2019-05-07T15:14:33.946Z,81.97
2019-05-07T15:17:43.591Z,81.80
2019-05-07T15:20:15.511Z,81.64
2019-05-07T15:22:56.150Z,81.26
2019-05-07T15:25:28.988Z,81.20
2019-05-07T15:28:01.821Z,81.12
2019-05-07T15:30:44.915Z,80.93
2019-05-07T15:33:16.354Z,80.05
2019-05-07T15:35:47.974Z,79.42
2019-05-07T15:38:21.599Z,79.37
2019-05-07T15:40:52.918Z,78.86
2019-05-07T15:43:24.671Z,78.35
2019-05-07T15:45:56.443Z,77.80
2019-05-07T15:48:28.036Z,77.45
2019-05-07T15:50:59.783Z,77.52
2019-05-07T15:53:45.673Z,77.24
2019-05-07T15:56:18.212Z,77.08
2019-05-07T15:58:51.619Z,76.40
2019-05-07T16:01:23.286Z,76.42
2019-05-07T16:03:55.254Z,75.96
2019-05-07T16:06:26.916Z,76.23
2019-05-07T16:09:02.448Z,76.15
2019-05-07T16:11:35.632Z,76.79
2019-05-07T16:14:14.484Z,75.79
2019-05-07T16:16:47.111Z,75.10
2019-05-07T16:19:23.589Z,75.03
2019-05-07T16:21:55.828Z,75.01
2019-05-07T16:24:27.465Z,74.56
2019-05-07T16:26:59.115Z,75.10
2019-05-07T16:29:33.659Z,74.93
2019-05-07T16:32:03.829Z,74.30
2019-05-07T16:34:35.076Z,74.94
2019-05-07T16:37:07.591Z,74.53
2019-05-07T16:39:39.391Z,75.44
2019-05-07T16:42:10.797Z,75.03
2019-05-07T16:44:42.055Z,75.29
2019-05-07T16:47:13.812Z,75.38
2019-05-07T16:49:45.549Z,75.72
2019-05-07T16:52:16.986Z,75.75
2019-05-07T16:54:48.380Z,75.79
2019-05-07T16:57:44.716Z,75.90
2019-05-07T17:00:24.523Z,75.83
2019-05-07T17:02:57.907Z,75.55
2019-05-07T17:05:29.512Z,74.76
2019-05-07T17:08:18.057Z,74.84
2019-05-07T17:10:49.372Z,74.56
2019-05-07T17:13:20.991Z,74.46
2019-05-07T17:15:59.414Z,74.62
2019-05-07T17:18:33.432Z,74.54
2019-05-07T17:21:04.881Z,74.30
2019-05-07T17:23:44.034Z,74.33
2019-05-07T17:26:11.721Z,73.94
2019-05-07T17:28:43.373Z,73.59
2019-05-07T17:31:14.714Z,73.90
2019-05-07T17:33:46.408Z,73.69
2019-05-07T17:36:18.135Z,73.44
2019-05-07T17:38:51.855Z,73.60
2019-05-07T17:41:27.390Z,73.70
2019-05-07T17:43:59.029Z,73.66
2019-05-07T17:46:32.441Z,72.19
2019-05-07T17:49:05.220Z,72.33
2019-05-07T17:51:44.153Z,72.26
2019-05-07T17:54:15.970Z,71.84
2019-05-07T17:56:52.756Z,71.86
2019-05-07T17:59:23.714Z,72.42
2019-05-07T18:02:21.883Z,71.89
2019-05-07T18:04:54.711Z,71.93
2019-05-07T18:07:28.531Z,71.83
2019-05-07T18:10:02.253Z,71.25
2019-05-07T18:12:34.029Z,71.30
2019-05-07T18:15:05.755Z,71.25
2019-05-07T18:17:51.491Z,71.25
2019-05-07T18:20:22.992Z,71.27
2019-05-07T18:22:54.372Z,71.50
2019-05-07T18:25:25.642Z,71.59
2019-05-07T18:27:57.041Z,72.13
2019-05-07T18:30:28.368Z,71.78
2019-05-07T18:33:17.403Z,71.68
2019-05-07T18:35:49.793Z,71.86
2019-05-07T18:38:22.364Z,72.15
2019-05-07T18:40:55.484Z,71.80
2019-05-07T18:43:26.972Z,72.45
2019-05-07T18:45:58.635Z,72.05
2019-05-07T18:48:30.285Z,72.19
2019-05-07T18:51:02.686Z,71.99
2019-05-07T18:53:34.234Z,71.37
2019-05-07T18:56:05.816Z,71.54
2019-05-07T18:58:37.242Z,71.36
2019-05-07T19:01:11.494Z,71.66
2019-05-07T19:03:42.867Z,72.55
2019-05-07T19:06:14.542Z,72.13
2019-05-07T19:08:47.026Z,71.81
2019-05-07T19:11:18.734Z,71.68
2019-05-07T19:13:52.308Z,71.84
2019-05-07T19:16:23.666Z,71.31
2019-05-07T19:18:55.123Z,71.67
2019-05-07T19:21:27.244Z,71.89
2019-05-07T19:23:58.751Z,71.82
2019-05-07T19:26:30.433Z,71.84
2019-05-07T19:29:02.565Z,71.77
2019-05-07T19:31:34.189Z,71.69
2019-05-07T19:34:05.633Z,71.57
2019-05-07T19:36:37.398Z,71.45
2019-05-07T19:39:09.133Z,71.15
2019-05-07T19:41:43.015Z,70.67
2019-05-07T19:44:14.718Z,70.81
2019-05-07T19:46:46.029Z,70.45
2019-05-07T19:49:17.468Z,70.57
2019-05-07T19:51:48.953Z,70.18
2019-05-07T19:54:20.176Z,69.85
2019-05-07T19:56:52.031Z,69.14
2019-05-07T19:59:23.181Z,68.72
2019-05-07T20:01:58.142Z,69.79
2019-05-07T20:04:32.107Z,69.87
2019-05-07T20:07:04.913Z,70.03
2019-05-07T20:09:37.848Z,70.45
2019-05-07T20:12:09.494Z,70.90
2019-05-07T20:14:42.215Z,70.51
2019-05-07T20:17:13.841Z,70.78
2019-05-07T20:19:45.199Z,70.85
2019-05-07T20:22:16.588Z,70.25
2019-05-07T20:24:48.200Z,70.46
2019-05-07T20:27:19.866Z,70.59
2019-05-07T20:29:52.248Z,70.58
2019-05-07T20:32:24.830Z,70.59
2019-05-07T20:34:56.352Z,70.31
2019-05-07T20:37:27.756Z,70.32
2019-05-07T20:39:59.548Z,70.35
2019-05-07T20:42:32.442Z,70.47
2019-05-07T20:45:04.817Z,70.52
2019-05-07T20:47:36.510Z,70.30
2019-05-07T20:50:08.841Z,69.92
2019-05-07T20:52:41.863Z,69.68
2019-05-07T20:55:31.503Z,70.48
2019-05-07T20:58:03.034Z,69.75
2019-05-07T21:00:34.594Z,70.13
2019-05-07T21:03:23.368Z,70.24
2019-05-07T21:05:54.339Z,69.74
2019-05-07T21:08:25.809Z,70.42
2019-05-07T21:10:57.100Z,70.08
2019-05-07T21:13:33.975Z,70.64
2019-05-07T21:16:03.280Z,71.05
2019-05-07T21:18:35.083Z,70.73
2019-05-07T21:21:06.521Z,70.79
2019-05-07T21:23:37.940Z,70.57
2019-05-07T21:26:09.168Z,70.66
2019-05-07T21:28:40.383Z,71.01
2019-05-07T21:31:13.506Z,70.42
2019-05-07T21:33:44.804Z,70.41
2019-05-07T21:36:16.309Z,70.50
2019-05-07T21:38:47.774Z,70.40
2019-05-07T21:41:19.027Z,70.35
2019-05-07T21:43:52.611Z,69.78
2019-05-07T21:46:23.646Z,69.66
2019-05-07T21:48:55.314Z,69.93
2019-05-07T21:51:26.650Z,69.94
2019-05-07T21:54:23.668Z,69.95
2019-05-07T21:57:06.248Z,69.82
2019-05-07T21:59:38.124Z,70.16
2019-05-07T22:02:14.985Z,70.26
2019-05-07T22:04:46.356Z,70.53
2019-05-07T22:07:17.809Z,70.10
2019-05-07T22:09:49.536Z,70.40
2019-05-07T22:12:22.623Z,70.13
2019-05-07T22:14:54.319Z,70.47
2019-05-07T22:17:25.834Z,70.12
2019-05-07T22:19:57.554Z,69.92
2019-05-07T22:22:28.782Z,69.84
2019-05-07T22:25:04.948Z,69.47
2019-05-07T22:27:35.383Z,70.47
2019-05-07T22:30:08.913Z,70.36
2019-05-07T22:32:54.886Z,70.25
2019-05-07T22:35:30.257Z,70.29
2019-05-07T22:38:19.498Z,70.92
2019-05-07T22:40:51.189Z,70.54
2019-05-07T22:43:22.733Z,70.88
2019-05-07T22:45:55.281Z,71.42
2019-05-07T22:48:26.928Z,70.96
2019-05-07T22:50:58.519Z,70.86
2019-05-07T22:53:30.027Z,69.62
2019-05-07T22:56:03.145Z,70.16
2019-05-07T22:58:38.787Z,70.86
2019-05-07T23:01:13.085Z,70.64
2019-05-07T23:03:44.804Z,71.25
2019-05-07T23:06:16.293Z,70.69
2019-05-07T23:08:47.918Z,71.32
2019-05-07T23:11:19.605Z,71.54
2019-05-07T23:13:52.425Z,71.10
2019-05-07T23:16:24.462Z,71.80
2019-05-07T23:18:55.724Z,71.67
2019-05-07T23:21:27.101Z,71.76
2019-05-07T23:23:58.576Z,71.36
2019-05-07T23:26:32.266Z,70.57
2019-05-07T23:29:02.840Z,70.15
2019-05-07T23:31:35.478Z,70.16
2019-05-07T23:34:07.010Z,70.42
2019-05-07T23:36:38.622Z,70.58
2019-05-07T23:39:12.533Z,70.91
2019-05-07T23:41:52.582Z,71.13
2019-05-07T23:44:24.522Z,71.37
2019-05-07T23:46:56.058Z,71.23
2019-05-07T23:49:27.658Z,71.69
2019-05-07T23:51:59.335Z,71.78
2019-05-07T23:54:31.934Z,71.13
2019-05-07T23:57:08.847Z,70.75
2019-05-07T23:59:36.690Z,71.05
